Hlavní strana
METAR-TAF:

METAR-TAF

Letiště :

Pointe-Noire, Kongo

zeměpisná šířka: 04-49S, zeměpisná délka: 011-54E, výška: 17 m

Aktuální stav počasí

Zpráva byla vytvořena před 1 hodinou a 1 minutami, v 16:00 UTC
Jihozápadní vítr 7 kt
Teplota 31°C
Vlhkost vzduchu 75%
Tlak 1007 hPa
Viditelnost 10 km a více
Skoro jasno ve výšce 1000 ft

METAR: FCPP 221600Z 23007KT 9999 FEW010 31/26 Q1007 NOSIG

Čas: 18:01 (17:01 UTC)

Předpověď počasí

Zpráva byla vytvořena před 6 hodinami a 1 minutami, v 11:00 UTC
Předpověď platná od 22 v 12 UTC do 23 v 12 UTC
Jižní vítr 6 kt
Viditelnost 10 km a více
Skoro jasno ve výšce 1700 ft
Skoro jasno ve výšce 3000 ft, Cumulonimbus.
Pravděpodobnost 30%
od 22 v 15 UTC do 22 v 18 UTC
bouřka
Změna
od 22 v 19 UTC do 22 v 21 UTC
Skoro jasno ve výšce 1700 ft

TAF: FCPP 221100Z 2212/2312 18006KT 9999 FEW017 FEW030CB PROB30 2215/2218 TS BECMG 2219/2221 FEW017

Stav a předpovědi počasí z více než 4 000 letišť (zprávy METAR a TAF).

Červené a žluté tečky na mapě představují dostupné meteorologické stanice.

Když kurzor umístíte na tečku, zobrazí se název stanice.

Pak kliknutím zobrazíte stav a předpověď počasí.

Chcete-li změnit mapu, kliknutím na zelené tlačítko se znaménkem +mapu přiblížíte, kliknutím na zelené tlačítko se znaménkem – mapu oddálíte a kliknutím na zelené šipky přejdete na sousední mapy.


METAR-TAF: